createdAt,value
2019-04-26T00:01:42.148Z,98492.21
2019-04-26T00:04:12.093Z,98497.84
2019-04-26T00:06:41.222Z,98520.31
2019-04-26T00:09:26.656Z,98518.95
2019-04-26T00:12:20.395Z,98525.67
2019-04-26T00:15:01.910Z,98507.46
2019-04-26T00:17:52.631Z,98536.58
2019-04-26T00:20:21.742Z,98555.98
2019-04-26T00:22:51.088Z,98554.66
2019-04-26T00:25:20.685Z,98554.84
2019-04-26T00:27:49.957Z,98552.99
2019-04-26T00:30:19.197Z,98555.98
2019-04-26T00:32:48.202Z,98553.42
2019-04-26T00:35:17.815Z,98537.72
2019-04-26T00:37:46.886Z,98555.03
2019-04-26T00:40:16.240Z,98560.16
2019-04-26T00:42:45.369Z,98559.86
2019-04-26T00:45:15.012Z,98548.91
2019-04-26T00:47:44.252Z,98546.55
2019-04-26T00:50:13.921Z,98559.25
2019-04-26T00:52:44.100Z,98576.84
2019-04-26T00:55:14.277Z,98585.68
2019-04-26T00:57:43.407Z,98574.43
2019-04-26T01:00:15.218Z,98572.48
2019-04-26T01:02:48.842Z,98561.77
2019-04-26T01:05:18.865Z,98547.87
2019-04-26T01:07:49.992Z,98532.70
2019-04-26T01:10:20.068Z,98543.97
2019-04-26T01:12:49.131Z,98539.67
2019-04-26T01:15:20.104Z,98526.99
2019-04-26T01:17:48.933Z,98535.14
2019-04-26T01:20:18.924Z,98548.70
2019-04-26T01:22:50.266Z,98562.27
2019-04-26T01:25:45.063Z,98569.66
2019-04-26T01:28:19.621Z,98577.25
2019-04-26T01:30:48.729Z,98582.87
2019-04-26T01:33:18.721Z,98581.91
2019-04-26T01:35:48.386Z,98580.68
2019-04-26T01:38:17.457Z,98577.56
2019-04-26T01:40:49.492Z,98561.64
2019-04-26T01:43:28.462Z,98547.05
2019-04-26T01:46:07.082Z,98531.60
2019-04-26T01:48:44.796Z,98532.44
2019-04-26T01:51:17.307Z,98541.89
2019-04-26T01:53:46.378Z,98543.51
2019-04-26T01:56:15.446Z,98542.98
2019-04-26T01:58:44.586Z,98548.29
2019-04-26T02:01:23.836Z,98555.86
2019-04-26T02:03:52.863Z,98550.42
2019-04-26T02:06:28.758Z,98550.94
2019-04-26T02:08:52.764Z,98555.44
2019-04-26T02:11:23.985Z,98561.88
2019-04-26T02:13:53.931Z,98577.69
2019-04-26T02:16:23.777Z,98575.69
2019-04-26T02:18:53.193Z,98575.41
2019-04-26T02:21:30.481Z,98568.39
2019-04-26T02:24:07.066Z,98564.48
2019-04-26T02:26:40.715Z,98570.78
2019-04-26T02:29:15.347Z,98585.88
2019-04-26T02:31:46.355Z,98588.30
2019-04-26T02:34:15.819Z,98586.80
2019-04-26T02:36:57.366Z,98593.29
2019-04-26T02:39:20.046Z,98592.74
2019-04-26T02:41:50.140Z,98584.40
2019-04-26T02:44:21.939Z,98580.07
2019-04-26T02:47:05.230Z,98580.61
2019-04-26T02:49:41.744Z,98590.64
2019-04-26T02:52:19.448Z,98590.05
2019-04-26T02:55:00.573Z,98593.82
2019-04-26T02:57:38.932Z,98595.95
2019-04-26T03:00:09.545Z,98589.83
2019-04-26T03:02:40.319Z,98586.38
2019-04-26T03:05:09.827Z,98597.39
2019-04-26T03:07:52.293Z,98619.77
2019-04-26T03:10:26.134Z,98624.94
2019-04-26T03:12:55.677Z,98624.25
2019-04-26T03:16:03.241Z,98612.61
2019-04-26T03:18:55.766Z,98611.97
2019-04-26T03:21:34.533Z,98613.25
2019-04-26T03:24:10.841Z,98610.38
2019-04-26T03:26:48.242Z,98620.77
2019-04-26T03:29:31.869Z,98620.17
2019-04-26T03:32:19.060Z,98616.13
2019-04-26T03:35:44.171Z,98604.69
2019-04-26T03:38:34.479Z,98602.22
2019-04-26T03:41:21.712Z,98604.11
2019-04-26T03:44:05.001Z,98616.84
2019-04-26T03:46:41.882Z,98622.23
2019-04-26T03:49:33.899Z,98620.06
2019-04-26T03:52:45.467Z,98620.31
2019-04-26T03:56:06.847Z,98618.94
2019-04-26T03:59:05.808Z,98621.44
2019-04-26T04:01:41.425Z,98622.44
2019-04-26T04:04:29.944Z,98626.83
2019-04-26T04:07:04.813Z,98623.81
2019-04-26T04:09:29.800Z,98628.56
2019-04-26T04:12:12.348Z,98627.27
2019-04-26T04:15:10.326Z,98626.80
2019-04-26T04:17:50.241Z,98620.11
2019-04-26T04:20:51.433Z,98623.61
2019-04-26T04:23:48.767Z,98617.42
2019-04-26T04:26:22.091Z,98621.51
2019-04-26T04:29:42.616Z,98621.88
2019-04-26T04:32:07.107Z,98628.81
2019-04-26T04:34:42.103Z,98627.01
2019-04-26T04:37:14.212Z,98628.71
2019-04-26T04:40:24.208Z,98621.30
2019-04-26T04:43:08.817Z,98614.91
2019-04-26T04:46:12.700Z,98618.25
2019-04-26T04:49:10.155Z,98617.26
2019-04-26T04:52:03.637Z,98618.28
2019-04-26T04:54:38.329Z,98602.58
2019-04-26T04:57:13.405Z,98617.97
2019-04-26T05:00:05.874Z,98639.34
2019-04-26T05:02:53.466Z,98659.37
2019-04-26T05:05:43.505Z,98675.28
2019-04-26T05:08:38.699Z,98683.51
2019-04-26T05:11:13.194Z,98685.58
2019-04-26T05:13:50.830Z,98692.04
2019-04-26T05:17:19.999Z,98692.37
2019-04-26T05:20:31.027Z,98701.93
2019-04-26T05:23:26.970Z,98706.25
2019-04-26T05:26:51.458Z,98712.81
2019-04-26T05:29:59.480Z,98724.03
2019-04-26T05:33:03.921Z,98728.48
2019-04-26T05:35:57.316Z,98741.58
2019-04-26T05:39:07.091Z,98740.36
2019-04-26T05:42:27.312Z,98742.50
2019-04-26T05:45:42.616Z,98731.23
2019-04-26T05:48:55.726Z,98726.05
2019-04-26T05:52:10.450Z,98719.70
2019-04-26T05:55:10.376Z,98721.70
2019-04-26T05:58:16.205Z,98727.27
2019-04-26T06:01:40.602Z,98743.15
2019-04-26T06:04:47.530Z,98752.78
2019-04-26T06:07:32.920Z,98755.43
2019-04-26T06:10:27.389Z,98773.06
2019-04-26T06:13:06.330Z,98762.06
2019-04-26T06:15:56.662Z,98756.05
2019-04-26T06:18:37.697Z,98756.59
2019-04-26T06:21:23.547Z,98755.16
2019-04-26T06:24:24.004Z,98765.14
2019-04-26T06:27:41.493Z,98779.07
2019-04-26T06:30:23.235Z,98782.91
2019-04-26T06:33:28.395Z,98791.28
2019-04-26T06:35:57.676Z,98792.33
2019-04-26T06:39:02.305Z,98796.55
2019-04-26T06:42:14.751Z,98801.64
2019-04-26T06:45:50.481Z,98804.84
2019-04-26T06:48:39.663Z,98807.02
2019-04-26T06:51:24.060Z,98803.47
2019-04-26T06:54:01.235Z,98799.23
2019-04-26T06:57:13.710Z,98804.03
2019-04-26T06:59:51.878Z,98810.91
2019-04-26T07:02:25.961Z,98819.28
2019-04-26T07:05:07.899Z,98816.25
2019-04-26T07:08:03.414Z,98823.78
2019-04-26T07:11:30.425Z,98826.50
2019-04-26T07:14:48.033Z,98830.80
2019-04-26T07:17:19.110Z,98834.73
2019-04-26T07:20:16.263Z,98833.44
2019-04-26T07:23:31.130Z,98823.23
2019-04-26T07:26:41.766Z,98809.17
2019-04-26T07:30:05.177Z,98815.82
2019-04-26T07:33:08.476Z,98819.48
2019-04-26T07:35:47.767Z,98823.76
2019-04-26T07:39:29.030Z,98830.66
2019-04-26T07:42:46.516Z,98825.62
2019-04-26T07:45:54.170Z,98839.05
2019-04-26T07:49:19.351Z,98839.41
2019-04-26T07:52:33.856Z,98843.25
2019-04-26T07:55:24.441Z,98833.13
2019-04-26T07:58:30.390Z,98827.17
2019-04-26T08:01:12.105Z,98825.41
2019-04-26T08:03:51.930Z,98831.72
2019-04-26T08:06:55.941Z,98835.83
2019-04-26T08:09:27.550Z,98836.84
2019-04-26T08:11:59.347Z,98843.45
2019-04-26T08:14:44.072Z,98847.27
2019-04-26T08:17:32.183Z,98845.27
2019-04-26T08:20:14.044Z,98849.42
2019-04-26T08:22:43.703Z,98852.03
2019-04-26T08:25:12.800Z,98860.86
2019-04-26T08:27:43.074Z,98866.58
2019-04-26T08:30:17.069Z,98873.91
2019-04-26T08:32:50.555Z,98876.70
2019-04-26T08:35:30.413Z,98888.79
2019-04-26T08:38:07.919Z,98890.75
2019-04-26T08:40:35.833Z,98903.20
2019-04-26T08:43:27.303Z,98900.23
2019-04-26T08:46:20.264Z,98892.50
2019-04-26T08:48:58.156Z,98899.97
2019-04-26T08:51:26.255Z,98895.47
2019-04-26T08:53:55.338Z,98894.41
2019-04-26T08:56:28.101Z,98902.33
2019-04-26T08:59:00.764Z,98893.77
2019-04-26T09:01:41.969Z,98885.69
2019-04-26T09:04:35.243Z,98892.05
2019-04-26T09:07:07.411Z,98887.85
2019-04-26T09:09:37.360Z,98893.31
2019-04-26T09:12:08.280Z,98895.82
2019-04-26T09:14:38.248Z,98896.34
2019-04-26T09:17:08.456Z,98915.11
2019-04-26T09:19:37.509Z,98898.20
2019-04-26T09:22:28.325Z,98895.51
2019-04-26T09:25:30.324Z,98894.03
2019-04-26T09:28:11.449Z,98895.08
2019-04-26T09:30:59.478Z,98902.96
2019-04-26T09:34:06.436Z,98921.50
2019-04-26T09:36:33.505Z,98917.75
2019-04-26T09:39:03.976Z,98899.09
2019-04-26T09:41:34.476Z,98901.24
2019-04-26T09:44:25.695Z,98900.88
2019-04-26T09:47:12.931Z,98889.45
2019-04-26T09:49:52.311Z,98899.16
2019-04-26T09:52:25.080Z,98905.53
2019-04-26T09:54:54.352Z,98918.92
2019-04-26T09:57:24.084Z,98922.88
2019-04-26T09:59:53.326Z,98918.39
2019-04-26T10:02:23.503Z,98930.47
2019-04-26T10:04:52.554Z,98932.53
2019-04-26T10:07:21.675Z,98924.81
2019-04-26T10:09:51.642Z,98929.69
2019-04-26T10:12:30.737Z,98927.13
2019-04-26T10:15:14.169Z,98936.78
2019-04-26T10:17:46.434Z,98937.05
2019-04-26T10:20:14.169Z,98940.63
2019-04-26T10:22:44.744Z,98940.16
2019-04-26T10:25:16.922Z,98940.22
2019-04-26T10:27:45.338Z,98938.21
2019-04-26T10:30:16.740Z,98944.42
2019-04-26T10:32:46.915Z,98937.91
2019-04-26T10:35:17.495Z,98936.77
2019-04-26T10:37:48.183Z,98932.73
2019-04-26T10:40:17.589Z,98934.59
2019-04-26T10:42:47.728Z,98929.59
2019-04-26T10:45:16.849Z,98923.73
2019-04-26T10:47:45.897Z,98915.30
2019-04-26T10:50:14.971Z,98920.08
2019-04-26T10:52:53.099Z,98911.11
2019-04-26T10:55:36.844Z,98918.59
2019-04-26T10:58:36.322Z,98908.98
2019-04-26T11:01:06.258Z,98906.15
2019-04-26T11:03:35.314Z,98904.14
2019-04-26T11:06:04.364Z,98901.34
2019-04-26T11:08:33.414Z,98901.44
2019-04-26T11:11:02.400Z,98903.31
2019-04-26T11:13:31.432Z,98915.26
2019-04-26T11:16:02.379Z,98912.35
2019-04-26T11:18:31.382Z,98921.70
2019-04-26T11:21:00.418Z,98924.17
2019-04-26T11:23:29.434Z,98932.86
2019-04-26T11:26:01.612Z,98924.60
2019-04-26T11:28:29.318Z,98920.34
2019-04-26T11:30:58.430Z,98921.02
2019-04-26T11:33:27.508Z,98928.50
2019-04-26T11:35:56.563Z,98933.76
2019-04-26T11:38:26.968Z,98930.71
2019-04-26T11:41:05.904Z,98931.79
2019-04-26T11:43:27.228Z,98930.91
2019-04-26T11:46:04.076Z,98930.10
2019-04-26T11:48:29.214Z,98937.07
2019-04-26T11:50:58.100Z,98941.88
2019-04-26T11:53:27.174Z,98944.38
2019-04-26T11:55:56.235Z,98937.81
2019-04-26T11:58:25.233Z,98939.00
2019-04-26T12:00:58.701Z,98939.94
2019-04-26T12:03:27.782Z,98940.91
2019-04-26T12:06:21.287Z,98944.66
2019-04-26T12:08:56.111Z,98943.91
2019-04-26T12:11:31.344Z,98942.78
2019-04-26T12:13:59.445Z,98938.76
2019-04-26T12:16:26.778Z,98941.78
2019-04-26T12:18:57.069Z,98937.25
2019-04-26T12:21:30.542Z,98943.87
2019-04-26T12:23:58.004Z,98946.89
2019-04-26T12:26:27.022Z,98946.12
2019-04-26T12:28:56.153Z,98948.90
2019-04-26T12:31:25.211Z,98944.81
2019-04-26T12:33:54.242Z,98953.05
2019-04-26T12:36:23.278Z,98949.56
2019-04-26T12:38:52.334Z,98943.83
2019-04-26T12:41:39.230Z,98939.94
2019-04-26T12:43:54.531Z,98940.59
2019-04-26T12:46:32.247Z,98946.10
2019-04-26T12:49:01.328Z,98953.58
2019-04-26T12:51:30.462Z,98948.32
2019-04-26T12:53:59.500Z,98953.62
2019-04-26T12:56:31.247Z,98948.31
2019-04-26T12:58:59.383Z,98956.95
2019-04-26T13:01:28.444Z,98949.38
2019-04-26T13:04:07.328Z,98952.78
2019-04-26T13:06:40.068Z,98956.81
2019-04-26T13:09:14.317Z,98944.95
2019-04-26T13:12:03.372Z,98953.29
2019-04-26T13:14:54.204Z,98952.26
2019-04-26T13:17:27.437Z,98948.16
2019-04-26T13:19:56.522Z,98947.75
2019-04-26T13:22:25.514Z,98946.45
2019-04-26T13:24:54.564Z,98948.16
2019-04-26T13:27:23.604Z,98946.74
2019-04-26T13:30:01.860Z,98951.34
2019-04-26T13:32:23.501Z,98945.78
2019-04-26T13:34:52.666Z,98952.98
2019-04-26T13:37:21.702Z,98954.09
2019-04-26T13:39:51.248Z,98947.16
2019-04-26T13:42:21.577Z,98952.59
2019-04-26T13:45:09.613Z,98948.49
2019-04-26T13:47:57.687Z,98943.67
2019-04-26T13:50:30.808Z,98946.04
2019-04-26T13:52:59.952Z,98945.80
2019-04-26T13:55:30.447Z,98939.30
2019-04-26T13:57:59.518Z,98938.98
2019-04-26T14:00:31.271Z,98937.41
2019-04-26T14:03:00.283Z,98930.02
2019-04-26T14:05:29.359Z,98935.00
2019-04-26T14:07:58.386Z,98938.41
2019-04-26T14:10:27.484Z,98932.31
2019-04-26T14:12:56.626Z,98931.51
2019-04-26T14:15:25.671Z,98930.37
2019-04-26T14:17:54.697Z,98936.61
2019-04-26T14:20:24.491Z,98931.29
2019-04-26T14:23:16.371Z,98932.74
2019-04-26T14:26:01.154Z,98933.38
2019-04-26T14:28:29.707Z,98926.10
2019-04-26T14:30:59.212Z,98921.14
2019-04-26T14:33:30.846Z,98917.65
2019-04-26T14:35:59.097Z,98920.23
2019-04-26T14:38:35.631Z,98914.86
2019-04-26T14:41:04.201Z,98921.25
2019-04-26T14:43:40.483Z,98919.59
2019-04-26T14:46:01.123Z,98924.44
2019-04-26T14:48:36.254Z,98928.14
2019-04-26T14:51:07.841Z,98929.10
2019-04-26T14:53:36.326Z,98929.20
2019-04-26T14:56:05.080Z,98924.66
2019-04-26T14:58:34.164Z,98927.48
2019-04-26T15:01:04.880Z,98922.31
2019-04-26T15:03:38.747Z,98919.58
2019-04-26T15:06:20.516Z,98917.78
2019-04-26T15:08:50.964Z,98921.94
2019-04-26T15:11:20.058Z,98928.98
2019-04-26T15:13:49.169Z,98739.28
2019-04-26T15:16:22.167Z,98927.44
2019-04-26T15:18:50.444Z,98921.93
2019-04-26T15:21:19.635Z,98918.18
2019-04-26T15:26:29.847Z,98915.48
2019-04-26T15:28:56.489Z,98913.37
2019-04-26T15:31:25.558Z,98909.12
2019-04-26T15:33:54.636Z,98915.23
2019-04-26T15:36:23.673Z,98916.61
2019-04-26T15:38:52.967Z,98912.64
2019-04-26T15:41:51.177Z,98919.16
2019-04-26T15:44:34.634Z,98916.33
2019-04-26T15:47:13.126Z,98919.50
2019-04-26T15:49:52.888Z,98919.72
2019-04-26T15:52:22.069Z,98921.45
2019-04-26T15:54:52.988Z,98924.28
2019-04-26T15:57:24.457Z,98923.83
2019-04-26T15:59:54.301Z,98924.08
2019-04-26T16:02:26.290Z,98916.78
2019-04-26T16:04:55.522Z,98915.50
2019-04-26T16:07:28.817Z,98924.63
2019-04-26T16:09:57.406Z,98922.95
2019-04-26T16:12:27.398Z,98932.44
2019-04-26T16:14:56.558Z,98933.69
2019-04-26T16:17:25.970Z,98931.00
2019-04-26T16:19:56.131Z,98933.87
2019-04-26T16:22:29.967Z,98936.87
2019-04-26T16:24:58.278Z,98936.16
2019-04-26T16:27:30.940Z,98931.63
2019-04-26T16:30:09.850Z,98934.66
2019-04-26T16:32:52.662Z,98931.45
2019-04-26T16:35:25.322Z,98931.30
2019-04-26T16:37:52.108Z,98933.78
2019-04-26T16:40:21.236Z,98939.28
2019-04-26T16:42:56.594Z,98935.48
2019-04-26T16:45:22.694Z,98936.01
2019-04-26T16:47:53.118Z,98940.98
2019-04-26T16:50:31.178Z,98945.00
2019-04-26T16:52:53.161Z,98941.41
2019-04-26T16:55:24.673Z,98949.98
2019-04-26T16:57:55.618Z,98947.88
2019-04-26T17:00:47.112Z,98947.20
2019-04-26T17:03:02.753Z,98945.29
2019-04-26T17:05:46.925Z,98952.80
2019-04-26T17:07:58.976Z,98948.64
2019-04-26T17:10:29.136Z,98962.98
2019-04-26T17:12:58.162Z,98954.30
2019-04-26T17:15:27.369Z,98963.67
2019-04-26T17:17:56.613Z,98958.50
2019-04-26T17:20:26.468Z,98958.98
2019-04-26T17:23:08.186Z,98955.00
2019-04-26T17:25:55.132Z,98958.34
2019-04-26T17:28:26.601Z,98957.64
2019-04-26T17:30:55.907Z,98958.67
2019-04-26T17:33:28.312Z,98961.66
2019-04-26T17:35:55.812Z,98961.82
2019-04-26T17:38:24.854Z,98962.83
2019-04-26T17:40:53.948Z,98954.64
2019-04-26T17:43:23.049Z,98964.48
2019-04-26T17:45:54.518Z,98952.66
2019-04-26T17:48:23.631Z,98965.66
2019-04-26T17:50:55.050Z,98968.83
2019-04-26T17:53:30.708Z,98967.50
2019-04-26T17:55:55.204Z,98968.16
2019-04-26T17:58:31.018Z,98970.65
2019-04-26T18:01:01.073Z,98969.78
2019-04-26T18:03:27.843Z,98970.59
2019-04-26T18:05:58.386Z,98969.56
2019-04-26T18:08:40.804Z,98977.20
2019-04-26T18:11:00.852Z,98976.00
2019-04-26T18:13:31.912Z,98967.58
2019-04-26T18:16:00.785Z,98965.94
2019-04-26T18:18:54.056Z,98971.13
2019-04-26T18:21:38.323Z,98965.61
2019-04-26T18:24:07.527Z,98975.55
2019-04-26T18:26:36.643Z,98978.88
2019-04-26T18:29:05.733Z,98976.52
2019-04-26T18:31:34.856Z,98980.28
2019-04-26T18:34:04.235Z,98985.38
2019-04-26T18:36:33.420Z,98984.47
2019-04-26T18:39:03.854Z,98989.97
2019-04-26T18:41:33.926Z,98989.71
2019-04-26T18:44:03.152Z,98989.79
2019-04-26T18:46:47.148Z,98992.77
2019-04-26T18:49:18.928Z,98999.69
2019-04-26T18:51:48.189Z,99004.61
2019-04-26T18:54:23.433Z,99008.34
2019-04-26T18:56:56.239Z,99013.59
2019-04-26T18:59:27.700Z,99020.78
2019-04-26T19:01:56.299Z,99021.30
2019-04-26T19:04:25.335Z,99027.16
2019-04-26T19:06:54.425Z,99032.00
2019-04-26T19:09:25.451Z,99025.56
2019-04-26T19:11:56.205Z,99031.24
2019-04-26T19:15:04.189Z,99038.34
2019-04-26T19:17:43.599Z,99039.94
2019-04-26T19:20:42.354Z,99045.95
2019-04-26T19:23:12.200Z,99052.19
2019-04-26T19:25:41.494Z,99059.27
2019-04-26T19:28:12.156Z,99061.64
2019-04-26T19:30:48.824Z,99064.09
2019-04-26T19:33:16.858Z,99060.58
2019-04-26T19:35:47.335Z,99060.88
2019-04-26T19:38:16.327Z,99061.45
2019-04-26T19:40:47.874Z,99069.64
2019-04-26T19:43:28.336Z,99064.03
2019-04-26T19:46:09.977Z,99065.02
2019-04-26T19:49:16.849Z,99068.23
2019-04-26T19:52:19.827Z,99080.63
2019-04-26T19:55:01.924Z,99076.42
2019-04-26T19:57:41.062Z,99078.81
2019-04-26T20:00:10.887Z,99079.10
2019-04-26T20:02:42.050Z,99079.77
2019-04-26T20:05:11.929Z,99080.73
2019-04-26T20:07:41.680Z,99074.23
2019-04-26T20:10:12.771Z,99080.92
2019-04-26T20:12:41.730Z,99085.06
2019-04-26T20:15:24.908Z,99088.80
2019-04-26T20:17:41.711Z,99078.95
2019-04-26T20:20:20.763Z,99088.85
2019-04-26T20:22:42.907Z,99076.64
2019-04-26T20:25:12.533Z,99077.84
2019-04-26T20:27:41.589Z,99082.48
2019-04-26T20:30:18.238Z,99083.41
2019-04-26T20:32:45.875Z,98858.05
2019-04-26T20:35:26.969Z,99079.63
2019-04-26T20:37:52.326Z,99084.59
2019-04-26T20:40:25.496Z,99078.08
2019-04-26T20:43:01.743Z,99078.22
2019-04-26T20:45:38.822Z,99079.55
2019-04-26T20:47:59.356Z,99087.90
2019-04-26T20:50:32.684Z,99081.81
2019-04-26T20:53:02.140Z,99083.19
2019-04-26T20:55:34.512Z,99080.94
2019-04-26T20:58:06.991Z,99084.69
2019-04-26T21:00:36.443Z,99089.53
2019-04-26T21:03:05.934Z,99081.70
2019-04-26T21:05:45.820Z,99084.88
2019-04-26T21:08:06.071Z,99082.92
2019-04-26T21:10:36.032Z,99082.62
2019-04-26T21:13:06.655Z,99085.63
2019-04-26T21:15:36.167Z,99078.70
2019-04-26T21:18:05.739Z,99086.92
2019-04-26T21:20:36.427Z,99084.98
2019-04-26T21:23:07.198Z,99085.22
2019-04-26T21:25:46.606Z,99081.60
2019-04-26T21:28:29.821Z,99086.00
2019-04-26T21:31:30.011Z,99090.56
2019-04-26T21:34:12.547Z,99096.12
2019-04-26T21:36:59.907Z,99097.29
2019-04-26T21:39:49.097Z,99090.83
2019-04-26T21:42:20.957Z,99098.65
2019-04-26T21:44:52.446Z,99104.83
2019-04-26T21:47:20.333Z,99102.91
2019-04-26T21:49:52.753Z,99109.38
2019-04-26T21:52:21.338Z,99110.47
2019-04-26T21:54:53.117Z,99116.58
2019-04-26T21:57:27.643Z,99118.28
2019-04-26T21:59:54.436Z,99120.05
2019-04-26T22:02:25.515Z,99118.97
2019-04-26T22:04:55.222Z,99121.49
2019-04-26T22:07:24.379Z,99129.94
2019-04-26T22:10:10.682Z,99126.20
2019-04-26T22:12:39.975Z,99122.73
2019-04-26T22:15:29.501Z,99122.94
2019-04-26T22:18:00.678Z,99124.26
2019-04-26T22:20:54.833Z,99125.50
2019-04-26T22:23:39.538Z,99131.02
2019-04-26T22:26:09.495Z,99123.81
2019-04-26T22:28:38.566Z,99118.78
2019-04-26T22:31:08.580Z,99118.78
2019-04-26T22:33:38.330Z,99123.58
2019-04-26T22:36:07.569Z,99130.07
2019-04-26T22:38:36.659Z,99136.66
2019-04-26T22:41:06.384Z,99135.31
2019-04-26T22:43:58.860Z,99136.75
2019-04-26T22:46:48.798Z,99136.37
2019-04-26T22:49:16.078Z,99131.70
2019-04-26T22:51:45.246Z,99137.38
2019-04-26T22:54:14.345Z,99133.28
2019-04-26T22:56:45.912Z,99140.66
2019-04-26T22:59:14.406Z,99136.31
2019-04-26T23:01:47.130Z,99137.87
2019-04-26T23:04:23.653Z,98934.90
2019-04-26T23:06:48.311Z,99139.52
2019-04-26T23:09:19.218Z,99139.76
2019-04-26T23:11:55.146Z,99138.41
2019-04-26T23:14:55.193Z,99121.35
2019-04-26T23:17:43.985Z,99122.54
2019-04-26T23:20:34.403Z,99118.45
2019-04-26T23:23:05.206Z,99117.51
2019-04-26T23:25:34.755Z,99119.04
2019-04-26T23:28:04.013Z,99119.27
2019-04-26T23:30:33.174Z,99111.00
2019-04-26T23:33:02.640Z,99108.63
2019-04-26T23:35:37.529Z,99102.84
2019-04-26T23:38:05.266Z,99105.27
2019-04-26T23:40:34.695Z,99099.60
2019-04-26T23:43:03.944Z,99104.39
2019-04-26T23:45:34.423Z,99102.48
2019-04-26T23:48:07.746Z,99096.67
2019-04-26T23:50:35.048Z,99100.97
2019-04-26T23:53:04.149Z,99097.48
2019-04-26T23:55:33.799Z,99103.36
2019-04-26T23:58:04.905Z,99100.95
